Time;durP1;ratioP1;P1;durP2;ratioP2;P2;SDS_P1;SDS_P2;PMS_P1;PMS_P2;Temp;Humidity;BMP_temperature;BMP_pressure;BME280_temperature;BME280_humidity;BME280_pressure;Samples;Min_cycle;Max_cycle;Signal;HPM_P1;HPM_P2
2023/03/19 00:00:08;;;;;;;9.85;4.03;;;-0.70;58.90;;;;;;5022619;28;20022;-82
2023/03/19 00:02:35;;;;;;;4.68;3.15;;;-0.80;59.00;;;;;;5026992;28;20041;-81
2023/03/19 00:05:01;;;;;;;8.63;3.88;;;-0.80;58.90;;;;;;5031589;28;20101;-81
2023/03/19 00:07:27;;;;;;;6.63;3.55;;;-0.80;59.00;;;;;;5017197;28;20048;-82
2023/03/19 00:09:53;;;;;;;6.57;4.03;;;-0.80;59.20;;;;;;5017541;28;20091;-81
2023/03/19 00:12:19;;;;;;;7.35;3.88;;;-0.80;59.20;;;;;;5032729;28;20097;-82
2023/03/19 00:14:45;;;;;;;6.68;2.97;;;-0.80;59.30;;;;;;5033794;28;20021;-82
2023/03/19 00:17:11;;;;;;;8.43;4.63;;;-0.90;59.30;;;;;;5032526;28;20038;-81
2023/03/19 00:19:38;;;;;;;6.80;4.38;;;-0.90;59.50;;;;;;5048703;28;20022;-80
2023/03/19 00:22:04;;;;;;;6.70;3.83;;;-0.90;59.70;;;;;;5044498;28;20026;-81
2023/03/19 00:24:30;;;;;;;8.20;3.60;;;-0.90;59.90;;;;;;5040137;28;20429;-79
2023/03/19 00:26:56;;;;;;;8.73;3.80;;;-1.00;60.70;;;;;;5012858;28;20541;-81
2023/03/19 00:29:22;;;;;;;4.80;3.05;;;-1.00;60.10;;;;;;5023154;28;20107;-82
2023/03/19 00:31:48;;;;;;;6.93;3.92;;;-1.00;60.20;;;;;;5028350;28;20483;-80
2023/03/19 00:34:17;;;;;;;5.38;3.42;;;-1.00;60.30;;;;;;5030988;28;20101;-80
2023/03/19 00:36:44;;;;;;;6.15;3.55;;;-1.10;60.30;;;;;;5029089;28;20073;-79
2023/03/19 00:39:10;;;;;;;6.85;3.47;;;-1.00;61.20;;;;;;5030661;28;20021;-81
2023/03/19 00:41:36;;;;;;;6.07;3.97;;;-1.00;60.60;;;;;;5027924;28;20026;-80
2023/03/19 00:44:03;;;;;;;6.18;3.35;;;-1.10;60.80;;;;;;5023490;28;20018;-81
2023/03/19 00:46:30;;;;;;;7.53;3.80;;;-1.10;60.90;;;;;;5022866;28;20029;-82
2023/03/19 00:48:57;;;;;;;8.48;4.70;;;-1.10;61.60;;;;;;5027997;28;20026;-80
2023/03/19 00:51:24;;;;;;;7.30;3.38;;;-1.10;61.10;;;;;;5020164;28;20480;-81
2023/03/19 00:53:50;;;;;;;8.63;3.88;;;-1.10;61.30;;;;;;5030985;28;20033;-82
2023/03/19 00:56:17;;;;;;;5.57;2.80;;;-1.20;61.40;;;;;;5031111;28;20044;-82
2023/03/19 00:58:44;;;;;;;7.85;3.92;;;-1.10;61.60;;;;;;5015519;28;20256;-81
2023/03/19 01:01:13;;;;;;;8.40;3.65;;;-1.20;61.60;;;;;;5021776;28;20029;-81
2023/03/19 01:03:39;;;;;;;5.25;3.53;;;-1.20;61.80;;;;;;5035291;28;20061;-80
2023/03/19 01:06:06;;;;;;;8.02;3.75;;;-1.20;61.90;;;;;;5030923;28;20052;-80
2023/03/19 01:08:31;;;;;;;10.35;4.07;;;-1.20;62.10;;;;;;5028198;28;20028;-81
2023/03/19 01:11:08;;;;;;;6.10;3.55;;;-1.30;62.10;;;;;;5033924;28;20035;-79
2023/03/19 01:13:34;;;;;;;7.20;4.55;;;-1.20;62.30;;;;;;5034915;28;20017;-80
2023/03/19 01:16:01;;;;;;;8.77;4.05;;;-1.30;62.20;;;;;;5031296;28;20030;-80
2023/03/19 01:18:26;;;;;;;4.00;3.38;;;-1.30;62.40;;;;;;5032672;28;20025;-80
2023/03/19 01:20:52;;;;;;;6.75;4.30;;;-1.30;62.60;;;;;;5030811;28;20084;-79
2023/03/19 01:23:18;;;;;;;4.93;3.92;;;-1.30;62.80;;;;;;5032587;28;20025;-81
2023/03/19 01:25:44;;;;;;;7.03;4.32;;;-1.40;62.90;;;;;;5019674;28;20029;-81
2023/03/19 01:28:10;;;;;;;5.43;3.58;;;-1.40;63.20;;;;;;5030336;28;20021;-80
2023/03/19 01:30:36;;;;;;;6.53;4.03;;;-1.40;63.30;;;;;;5023655;28;20037;-81
2023/03/19 01:33:02;;;;;;;8.43;4.63;;;-1.40;63.30;;;;;;5029419;28;20495;-80
2023/03/19 01:35:28;;;;;;;6.43;3.83;;;-1.40;63.50;;;;;;5034713;28;20140;-81
2023/03/19 01:37:53;;;;;;;5.22;3.50;;;-1.40;63.70;;;;;;5033472;28;20057;-80
2023/03/19 01:40:19;;;;;;;6.88;4.32;;;-1.40;64.00;;;;;;5032262;28;20034;-79
2023/03/19 01:43:02;;;;;;;6.97;3.45;;;-1.50;64.00;;;;;;5020894;28;20033;-78
2023/03/19 01:45:37;;;;;;;7.82;4.50;;;-1.50;64.20;;;;;;5022873;28;20025;-79
2023/03/19 01:48:04;;;;;;;6.97;4.55;;;-1.40;64.40;;;;;;5017261;28;20026;-81
2023/03/19 01:50:42;;;;;;;10.00;4.22;;;-1.50;64.30;;;;;;5027734;28;20033;-78
2023/03/19 01:53:10;;;;;;;8.13;4.15;;;-1.50;64.40;;;;;;5008613;28;20101;-78
2023/03/19 01:55:37;;;;;;;6.18;4.03;;;-1.50;64.50;;;;;;5015413;28;20029;-81
2023/03/19 01:58:05;;;;;;;7.05;4.80;;;-1.50;64.50;;;;;;5020636;28;20044;-80
2023/03/19 02:00:33;;;;;;;6.72;3.85;;;-1.50;64.60;;;;;;5017809;28;20496;-80
2023/03/19 02:03:01;;;;;;;11.60;4.55;;;-1.50;64.70;;;;;;5025432;28;20062;-80
2023/03/19 02:05:27;;;;;;;;;;;-1.50;64.80;;;;;;5014585;28;20018;-80
2023/03/19 02:07:58;;;;;;;10.85;3.72;;;-1.50;64.60;;;;;;5001308;28;19912;-79
2023/03/19 02:10:25;;;;;;;9.50;4.55;;;-1.50;64.80;;;;;;5015704;28;20068;-80
2023/03/19 02:12:51;;;;;;;8.60;3.78;;;-1.60;64.90;;;;;;5019574;28;20021;-82
2023/03/19 02:15:17;;;;;;;9.52;3.50;;;-1.60;65.20;;;;;;5025475;28;20033;-80
2023/03/19 02:17:43;;;;;;;5.90;3.65;;;-1.60;65.30;;;;;;5036947;28;20033;-79
2023/03/19 02:20:26;;;;;;;9.05;4.07;;;-1.60;65.50;;;;;;5035124;28;20033;-80
2023/03/19 02:23:33;;;;;;;8.88;4.15;;;-1.60;65.60;;;;;;5029239;28;20120;-80
2023/03/19 02:26:10;;;;;;;9.80;4.28;;;-1.60;65.50;;;;;;5025044;28;20514;-80
2023/03/19 02:28:40;;;;;;;10.48;4.10;;;-1.70;65.50;;;;;;5030905;28;20441;-79
2023/03/19 02:31:07;;;;;;;6.90;3.78;;;-1.70;65.60;;;;;;5028424;28;20033;-80
2023/03/19 02:33:34;;;;;;;9.13;4.68;;;-1.70;65.70;;;;;;5024493;28;20029;-79
2023/03/19 02:36:02;;;;;;;10.52;4.68;;;-1.70;65.90;;;;;;5023266;28;20033;-81
2023/03/19 02:38:31;;;;;;;7.72;5.35;;;-1.70;66.20;;;;;;5024975;28;20021;-81
2023/03/19 02:41:03;;;;;;;10.65;4.38;;;-1.70;66.20;;;;;;5029579;28;20021;-80
2023/03/19 02:43:31;;;;;;;9.88;4.40;;;-1.80;66.40;;;;;;5027635;28;20549;-79
2023/03/19 02:45:57;;;;;;;6.85;4.32;;;-1.80;66.40;;;;;;5024440;28;20100;-78
2023/03/19 02:48:24;;;;;;;6.03;4.32;;;-1.80;66.50;;;;;;5026851;28;20105;-79
2023/03/19 02:50:50;;;;;;;5.70;3.78;;;-1.80;66.60;;;;;;5029938;28;20053;-80
2023/03/19 02:53:16;;;;;;;5.38;4.00;;;-1.80;66.70;;;;;;5025947;28;20069;-79
2023/03/19 02:55:42;;;;;;;11.43;4.35;;;-1.80;66.80;;;;;;5041485;28;20018;-80
2023/03/19 02:58:08;;;;;;;9.45;4.22;;;-1.80;66.80;;;;;;5039593;28;20079;-79
2023/03/19 03:00:34;;;;;;;12.65;4.68;;;-1.80;66.90;;;;;;5019236;28;20018;-80
2023/03/19 03:03:00;;;;;;;9.20;5.15;;;-1.80;67.00;;;;;;5032696;28;20053;-79
2023/03/19 03:05:27;;;;;;;7.30;4.27;;;-1.80;67.20;;;;;;5035069;28;20029;-81
2023/03/19 03:07:55;;;;;;;5.78;3.67;;;-1.90;67.10;;;;;;5034703;28;20316;-81
2023/03/19 03:10:21;;;;;;;9.50;4.13;;;-1.80;67.40;;;;;;5033967;28;20025;-80
2023/03/19 03:12:47;;;;;;;11.00;4.82;;;-1.80;67.40;;;;;;5035625;28;20048;-82
2023/03/19 03:15:13;;;;;;;7.70;5.25;;;-1.80;67.50;;;;;;5036575;28;20049;-82
2023/03/19 03:17:40;;;;;;;7.13;4.68;;;-1.90;67.60;;;;;;5032350;28;20061;-81
2023/03/19 03:20:08;;;;;;;8.68;4.70;;;-1.90;67.70;;;;;;5033782;28;20386;-81
2023/03/19 03:22:34;;;;;;;;;;;-1.90;68.00;;;;;;5021103;28;20069;-80
2023/03/19 03:25:00;;;;;;;9.13;5.10;;;-1.90;67.60;;;;;;5029254;28;19959;-81
2023/03/19 03:27:26;;;;;;;10.95;5.28;;;-1.90;68.30;;;;;;5015071;28;20030;-79
2023/03/19 03:29:52;;;;;;;9.57;5.20;;;-1.90;68.10;;;;;;5026358;28;20029;-80
2023/03/19 03:32:18;;;;;;;9.20;5.68;;;-1.90;68.20;;;;;;5023717;28;20048;-79
2023/03/19 03:34:45;;;;;;;7.55;4.20;;;-2.00;68.20;;;;;;5020022;28;20034;-80
2023/03/19 03:37:11;;;;;;;7.97;4.38;;;-2.00;68.40;;;;;;5023693;28;20041;-80
2023/03/19 03:39:37;;;;;;;8.82;4.28;;;-2.00;68.50;;;;;;5019572;28;20022;-80
2023/03/19 03:42:03;;;;;;;11.82;5.40;;;-2.00;68.50;;;;;;5025722;28;20386;-81
2023/03/19 03:44:29;;;;;;;11.43;5.30;;;-2.00;68.70;;;;;;5019390;28;20029;-80
2023/03/19 03:46:55;;;;;;;12.68;4.95;;;-2.10;69.30;;;;;;5019109;28;20434;-81
2023/03/19 03:49:22;;;;;;;11.55;5.18;;;-2.00;69.10;;;;;;5019097;28;20018;-81
2023/03/19 03:51:48;;;;;;;11.82;4.70;;;-2.00;69.10;;;;;;5021899;28;20100;-79
2023/03/19 03:54:14;;;;;;;11.85;4.88;;;-2.00;69.10;;;;;;5016115;28;20046;-80
2023/03/19 03:56:40;;;;;;;8.52;4.68;;;-2.00;69.30;;;;;;5012592;28;20040;-81
2023/03/19 03:59:06;;;;;;;7.57;4.40;;;-2.00;69.20;;;;;;5012597;28;20093;-80
2023/03/19 04:01:32;;;;;;;6.90;4.68;;;-2.10;69.00;;;;;;5022009;28;20030;-79
2023/03/19 04:03:59;;;;;;;5.70;4.05;;;-2.00;68.90;;;;;;5029401;28;20053;-80
2023/03/19 04:06:26;;;;;;;9.15;4.50;;;-2.00;68.90;;;;;;5031319;28;20029;-81
2023/03/19 04:08:52;;;;;;;8.10;4.75;;;-2.00;68.90;;;;;;5017411;28;20511;-80
2023/03/19 04:11:18;;;;;;;7.90;3.67;;;-2.00;68.90;;;;;;5029702;28;20061;-81
2023/03/19 04:13:44;;;;;;;8.13;4.93;;;-1.90;69.00;;;;;;5029535;28;20184;-81
2023/03/19 04:16:10;;;;;;;8.50;4.93;;;-1.80;69.30;;;;;;5028222;28;20498;-79
2023/03/19 04:18:36;;;;;;;10.98;5.20;;;-1.60;69.50;;;;;;5031986;28;20383;-80
2023/03/19 04:21:06;;;;;;;7.13;4.75;;;-1.40;69.10;;;;;;5023287;28;20442;-81
2023/03/19 04:23:32;;;;;;;10.18;4.70;;;-1.00;68.80;;;;;;5023898;28;20025;-80
2023/03/19 04:26:00;;;;;;;6.53;4.72;;;-0.60;68.50;;;;;;5024460;28;20018;-81
2023/03/19 04:28:27;;;;;;;11.93;4.95;;;-0.20;67.30;;;;;;5031463;28;20033;-81
2023/03/19 04:31:02;;;;;;;8.80;4.67;;;0.20;64.80;;;;;;5027235;28;20014;-81
2023/03/19 04:33:29;;;;;;;8.45;4.68;;;0.10;63.70;;;;;;5022171;28;20570;-80
2023/03/19 04:35:56;;;;;;;6.65;4.70;;;-0.20;63.70;;;;;;5022068;28;20033;-82
2023/03/19 04:38:25;;;;;;;9.50;5.18;;;-0.50;64.10;;;;;;5029087;28;20037;-79
2023/03/19 04:40:52;;;;;;;8.32;4.38;;;-0.80;64.60;;;;;;5027080;28;20028;-81
2023/03/19 04:43:18;;;;;;;8.75;4.95;;;-1.00;65.10;;;;;;5026457;28;20412;-81
2023/03/19 04:45:44;;;;;;;10.57;5.15;;;-1.10;65.50;;;;;;5028306;28;20034;-81
2023/03/19 04:48:10;;;;;;;11.27;5.68;;;-1.20;65.90;;;;;;5023191;28;20076;-81
2023/03/19 04:50:37;;;;;;;9.82;5.65;;;-1.30;66.20;;;;;;5028084;28;20030;-81
2023/03/19 04:53:02;;;;;;;8.00;5.40;;;-1.40;66.50;;;;;;5023625;28;20037;-80
2023/03/19 04:55:28;;;;;;;11.75;5.13;;;-1.50;66.70;;;;;;5026688;28;20083;-82
2023/03/19 04:57:55;;;;;;;8.02;4.82;;;-1.50;67.10;;;;;;5023529;28;20038;-82
2023/03/19 05:00:21;;;;;;;6.00;4.75;;;-1.50;67.40;;;;;;5021471;28;20018;-81
2023/03/19 05:02:47;;;;;;;8.80;4.90;;;-1.60;67.40;;;;;;5019008;28;20061;-81
2023/03/19 05:05:12;;;;;;;11.13;5.82;;;-1.60;67.70;;;;;;5017364;28;20483;-80
2023/03/19 05:07:40;;;;;;;9.77;5.25;;;-1.70;67.90;;;;;;5016737;28;20032;-82
2023/03/19 05:10:07;;;;;;;9.95;5.18;;;-1.60;68.10;;;;;;5016395;28;20080;-82
2023/03/19 05:12:33;;;;;;;;;;;-1.60;68.10;;;;;;5016400;28;20062;-82
2023/03/19 05:14:59;;;;;;;6.80;4.68;;;-1.60;67.90;;;;;;5023690;28;19909;-81
2023/03/19 05:17:26;;;;;;;9.70;5.35;;;-1.60;68.10;;;;;;5034937;28;20036;-81
2023/03/19 05:19:51;;;;;;;7.80;5.22;;;-1.60;68.40;;;;;;5015352;28;20097;-82
2023/03/19 05:22:18;;;;;;;7.78;4.65;;;-1.60;68.60;;;;;;5015241;28;20045;-80
2023/03/19 05:24:45;;;;;;;6.60;3.70;;;-1.60;68.80;;;;;;5019401;28;20032;-80
2023/03/19 05:27:11;;;;;;;7.13;4.55;;;-1.60;69.10;;;;;;5023008;28;20033;-82
2023/03/19 05:29:37;;;;;;;10.52;5.90;;;-1.60;69.20;;;;;;5033186;28;20053;-80
2023/03/19 05:32:04;;;;;;;8.07;4.65;;;-1.60;69.30;;;;;;5044858;28;20006;-81
2023/03/19 05:34:30;;;;;;;9.40;4.90;;;-1.60;69.40;;;;;;5044503;28;20044;-80
2023/03/19 05:36:56;;;;;;;8.30;4.90;;;-1.60;69.40;;;;;;5032464;28;20038;-81
2023/03/19 05:39:22;;;;;;;8.25;5.93;;;-1.50;70.00;;;;;;5031254;28;20025;-81
2023/03/19 05:41:49;;;;;;;9.60;5.07;;;-1.50;69.50;;;;;;5027424;28;20126;-81
2023/03/19 05:44:15;;;;;;;9.73;4.70;;;-1.50;69.50;;;;;;5029700;28;20029;-81
2023/03/19 05:46:42;;;;;;;7.30;4.63;;;-1.50;69.70;;;;;;5030574;28;20120;-81
2023/03/19 05:49:08;;;;;;;9.32;4.55;;;-1.50;69.70;;;;;;5036160;28;20073;-82
2023/03/19 05:51:34;;;;;;;7.90;4.63;;;-1.50;69.80;;;;;;5030985;28;20514;-81
2023/03/19 05:54:01;;;;;;;4.25;2.58;;;-1.50;69.90;;;;;;5030936;28;20414;-82
2023/03/19 05:56:28;;;;;;;7.85;4.03;;;-1.40;69.90;;;;;;5017381;28;20125;-81
2023/03/19 05:58:54;;;;;;;8.60;4.63;;;-1.50;70.10;;;;;;5027688;28;20013;-81
2023/03/19 06:01:20;;;;;;;8.70;6.55;;;-1.50;70.30;;;;;;5020556;28;20038;-82
2023/03/19 06:03:46;;;;;;;9.63;4.85;;;-1.40;70.30;;;;;;5029320;28;20572;-81
2023/03/19 06:06:12;;;;;;;9.07;4.65;;;-1.40;70.20;;;;;;5030275;28;20030;-82
2023/03/19 06:08:38;;;;;;;7.50;4.35;;;-1.40;70.10;;;;;;5033083;28;20064;-80
2023/03/19 06:11:04;;;;;;;7.07;4.97;;;-1.40;70.20;;;;;;5019887;28;20039;-83
2023/03/19 06:13:30;;;;;;;19.38;6.72;;;-1.40;70.30;;;;;;5038033;28;20025;-81
2023/03/19 06:15:56;;;;;;;10.60;5.03;;;-1.30;70.30;;;;;;5026774;28;20136;-80
2023/03/19 06:18:22;;;;;;;9.90;4.55;;;-1.20;70.20;;;;;;5021734;28;20024;-82
2023/03/19 06:20:48;;;;;;;7.70;5.13;;;-1.20;70.00;;;;;;5032537;28;20049;-80
2023/03/19 06:23:14;;;;;;;10.80;6.00;;;-1.20;69.90;;;;;;5026360;28;20065;-82
2023/03/19 06:25:40;;;;;;;8.05;4.93;;;-1.20;70.00;;;;;;5029614;28;20049;-81
2023/03/19 06:28:06;;;;;;;10.13;4.60;;;-1.10;70.10;;;;;;5029058;28;20030;-80
2023/03/19 06:30:33;;;;;;;9.75;5.60;;;-1.10;70.00;;;;;;5033086;28;20026;-80
2023/03/19 06:32:59;;;;;;;10.10;5.15;;;-1.10;69.90;;;;;;5032807;28;20026;-80
2023/03/19 06:35:25;;;;;;;9.63;5.35;;;-1.10;69.80;;;;;;5036091;28;20091;-79
2023/03/19 06:37:51;;;;;;;7.20;5.22;;;-1.10;69.80;;;;;;5030391;28;20065;-80
2023/03/19 06:40:17;;;;;;;9.38;6.00;;;-1.10;70.10;;;;;;5028131;28;20021;-80
2023/03/19 06:42:45;;;;;;;9.88;4.68;;;-1.00;70.10;;;;;;5035569;28;20172;-80
2023/03/19 06:45:14;;;;;;;8.85;5.90;;;-1.00;70.10;;;;;;5034246;28;20574;-80
2023/03/19 06:47:42;;;;;;;7.45;4.93;;;-1.00;70.00;;;;;;5031434;28;20029;-80
2023/03/19 06:50:09;;;;;;;10.38;5.90;;;-1.00;70.00;;;;;;5031717;28;20022;-79
2023/03/19 06:52:39;;;;;;;15.55;6.45;;;-0.90;70.00;;;;;;5026277;28;20022;-80
2023/03/19 06:55:07;;;;;;;10.77;5.45;;;-0.80;70.00;;;;;;5029342;28;20030;-81
2023/03/19 06:57:33;;;;;;;12.70;5.38;;;-0.70;69.80;;;;;;5016651;28;20127;-80
2023/03/19 06:59:59;;;;;;;16.58;6.40;;;-0.70;69.80;;;;;;5021201;28;20491;-80
2023/03/19 07:02:26;;;;;;;12.68;5.43;;;-0.60;69.80;;;;;;5027356;28;20053;-82
2023/03/19 07:04:52;;;;;;;11.05;5.63;;;-0.50;70.00;;;;;;5022419;28;20021;-82
2023/03/19 07:07:18;;;;;;;11.25;5.55;;;-0.40;69.80;;;;;;5029746;28;20084;-82
2023/03/19 07:09:44;;;;;;;8.45;5.00;;;-0.30;69.60;;;;;;5032787;28;20021;-83
2023/03/19 07:12:10;;;;;;;14.15;5.32;;;-0.20;69.30;;;;;;5030141;28;20500;-80
2023/03/19 07:14:36;;;;;;;8.77;5.05;;;-0.10;69.10;;;;;;5029902;28;20021;-80
2023/03/19 07:17:05;;;;;;;12.57;5.65;;;-0.10;68.90;;;;;;5020612;28;20037;-81
2023/03/19 07:19:34;;;;;;;12.10;6.47;;;0.10;68.70;;;;;;5031351;28;20096;-82
2023/03/19 07:22:18;;;;;;;11.40;5.85;;;0.20;68.50;;;;;;5022689;28;20034;-81
2023/03/19 07:24:44;;;;;;;11.48;6.40;;;0.30;68.60;;;;;;5015220;28;20032;-82
2023/03/19 07:27:10;;;;;;;9.80;6.43;;;0.40;67.80;;;;;;5014471;28;20068;-82
2023/03/19 07:29:36;;;;;;;11.60;5.88;;;0.60;67.70;;;;;;5014790;28;20125;-81
2023/03/19 07:32:11;;;;;;;12.53;6.27;;;1.20;67.90;;;;;;5033602;28;20439;-83
2023/03/19 07:34:40;;;;;;;8.45;5.93;;;2.90;68.10;;;;;;5032518;28;20515;-82
2023/03/19 07:37:10;;;;;;;15.75;5.95;;;5.30;63.50;;;;;;5028205;28;20101;-82
2023/03/19 07:39:39;;;;;;;11.88;6.35;;;7.50;57.80;;;;;;5028486;28;20018;-80
2023/03/19 07:42:05;;;;;;;11.52;5.65;;;9.40;52.90;;;;;;5027129;28;20065;-79
2023/03/19 07:44:31;;;;;;;11.32;6.22;;;10.90;48.80;;;;;;5030499;28;20019;-81
2023/03/19 07:46:57;;;;;;;7.65;6.25;;;12.10;46.60;;;;;;5029008;28;20394;-80
2023/03/19 07:49:23;;;;;;;8.82;6.18;;;12.70;43.40;;;;;;5018504;28;20029;-81
2023/03/19 07:51:50;;;;;;;10.48;7.57;;;13.40;42.20;;;;;;5017781;28;20029;-82
2023/03/19 07:54:16;;;;;;;12.03;6.80;;;14.00;40.70;;;;;;5027900;28;20030;-82
2023/03/19 07:56:42;;;;;;;12.55;6.70;;;14.90;39.70;;;;;;5010163;28;20048;-82
2023/03/19 07:59:08;;;;;;;15.80;6.55;;;15.60;38.20;;;;;;5019597;28;20424;-82
2023/03/19 08:01:35;;;;;;;13.57;7.68;;;;;;;;;;5030153;28;20037;-81
2023/03/19 08:04:08;;;;;;;9.47;6.20;;;16.00;35.10;;;;;;5041075;28;20179;-83
2023/03/19 08:06:34;;;;;;;9.35;6.88;;;15.90;35.80;;;;;;5029795;28;20301;-81
2023/03/19 08:12:33;;;;;;;10.95;6.97;;;16.90;34.40;;;;;;5018016;28;20036;-83
2023/03/19 08:14:59;;;;;;;9.75;6.53;;;17.00;34.40;;;;;;5031216;28;20057;-80
2023/03/19 08:17:26;;;;;;;8.88;6.03;;;17.40;33.80;;;;;;5031091;28;20067;-82
2023/03/19 08:19:51;;;;;;;10.40;6.00;;;18.20;32.30;;;;;;5021704;28;20434;-80
2023/03/19 08:22:17;;;;;;;9.15;5.75;;;18.10;32.10;;;;;;5022425;28;20276;-80
2023/03/19 08:24:43;;;;;;;12.73;6.22;;;18.00;31.70;;;;;;5032673;28;20068;-82
2023/03/19 08:27:10;;;;;;;7.40;5.95;;;18.40;32.20;;;;;;5041517;28;20032;-82
2023/03/19 08:29:36;;;;;;;8.30;6.72;;;19.20;31.20;;;;;;5039078;28;20073;-84
2023/03/19 08:32:02;;;;;;;9.85;6.85;;;19.40;30.70;;;;;;5035948;28;20395;-81
2023/03/19 08:34:28;;;;;;;12.15;6.90;;;19.30;30.30;;;;;;5029857;28;20113;-81
2023/03/19 08:36:56;;;;;;;12.48;6.65;;;19.60;30.40;;;;;;5033126;28;20301;-81
2023/03/19 08:39:23;;;;;;;13.57;5.95;;;19.90;30.20;;;;;;5029684;28;20018;-83
2023/03/19 08:41:49;;;;;;;11.50;6.50;;;20.70;29.80;;;;;;5031605;28;20018;-81
2023/03/19 08:44:15;;;;;;;8.18;5.70;;;21.10;29.30;;;;;;5027317;28;20038;-81
2023/03/19 08:46:44;;;;;;;10.05;6.47;;;20.90;28.80;;;;;;5021024;28;20085;-83
2023/03/19 08:49:10;;;;;;;11.05;6.28;;;20.70;28.90;;;;;;5030063;28;20028;-82
2023/03/19 08:51:36;;;;;;;12.38;6.25;;;20.80;29.20;;;;;;5026926;28;20030;-90
2023/03/19 08:54:02;;;;;;;14.55;6.50;;;20.90;29.10;;;;;;5039027;28;20033;-89
2023/03/19 08:56:28;;;;;;;11.35;6.57;;;20.80;29.10;;;;;;5024695;28;20442;-89
2023/03/19 08:58:56;;;;;;;14.23;6.70;;;21.10;28.70;;;;;;5027502;28;20052;-91
2023/03/19 09:01:22;;;;;;;8.00;6.40;;;21.40;28.40;;;;;;5028437;28;20025;-90
2023/03/19 09:03:48;;;;;;;8.55;5.78;;;21.80;28.50;;;;;;5043464;28;20049;-88
2023/03/19 09:06:14;;;;;;;6.13;5.28;;;21.10;28.20;;;;;;5045254;28;20033;-86
2023/03/19 09:08:41;;;;;;;22.35;7.35;;;20.80;28.80;;;;;;5044882;28;20044;-89
2023/03/19 09:11:07;;;;;;;12.13;6.05;;;21.20;28.70;;;;;;5041736;28;20010;-88
2023/03/19 09:13:33;;;;;;;11.50;6.22;;;21.70;28.40;;;;;;5042582;28;20098;-90
2023/03/19 09:16:00;;;;;;;11.30;6.47;;;21.70;29.00;;;;;;5025905;28;20041;-84
2023/03/19 09:18:26;;;;;;;8.50;6.03;;;22.10;28.30;;;;;;5028371;28;20032;-91
2023/03/19 09:20:53;;;;;;;10.85;7.13;;;22.20;28.20;;;;;;5033389;28;20260;-94
2023/03/19 09:23:20;;;;;;;7.40;5.97;;;22.20;28.10;;;;;;5038558;28;20045;-91
2023/03/19 09:25:46;;;;;;;9.15;5.90;;;22.80;28.00;;;;;;5034856;28;20026;-92
2023/03/19 09:28:12;;;;;;;13.20;7.00;;;23.00;27.50;;;;;;5026663;28;20033;-91
2023/03/19 09:30:38;;;;;;;11.90;7.28;;;22.90;27.40;;;;;;5031671;28;20022;-89
2023/03/19 09:33:05;;;;;;;13.70;7.20;;;23.00;27.20;;;;;;5021762;28;20608;-86
2023/03/19 09:35:32;;;;;;;17.13;7.63;;;23.20;27.30;;;;;;5039840;28;20178;-87
2023/03/19 09:37:58;;;;;;;;;;;23.50;27.20;;;;;;5027625;28;20061;-88
2023/03/19 09:40:38;;;;;;;9.63;6.40;;;23.50;28.10;;;;;;5029988;28;19913;-92
2023/03/19 09:43:57;;;;;;;11.82;6.90;;;23.00;27.30;;;;;;5041200;28;20271;-91
2023/03/19 09:46:49;;;;;;;14.95;6.78;;;23.40;27.80;;;;;;4957253;29;20030;-90
2023/03/19 09:49:27;;;;;;;10.82;6.68;;;23.50;27.10;;;;;;4952681;29;20027;-88
2023/03/19 09:52:06;;;;;;;11.00;6.25;;;22.90;27.40;;;;;;4923646;29;20050;-86
2023/03/19 09:54:43;;;;;;;7.82;5.53;;;23.10;27.40;;;;;;4954495;29;20023;-85
2023/03/19 09:57:10;;;;;;;8.70;6.07;;;23.40;27.20;;;;;;4954350;29;20051;-90
2023/03/19 09:59:37;;;;;;;10.82;6.72;;;23.00;27.00;;;;;;4943004;28;20028;-93
2023/03/19 10:02:17;;;;;;;;;;;22.00;27.60;;;;;;4948555;29;20075;-92
2023/03/19 10:05:22;;;;;;;18.27;7.28;;;21.90;28.60;;;;;;4937827;29;19898;-94
2023/03/19 10:08:21;;;;;;;;;;;22.10;28.30;;;;;;4917895;29;20047;-94
2023/03/19 10:11:07;;;;;;;11.43;6.65;;;22.40;28.30;;;;;;4936124;29;19993;-87
2023/03/19 10:14:16;;;;;;;12.40;6.28;;;22.00;28.30;;;;;;4952308;28;20023;-84
2023/03/19 10:16:48;;;;;;;13.43;6.50;;;22.60;28.00;;;;;;4991055;28;20037;-90
2023/03/19 10:20:06;;;;;;;10.68;6.07;;;22.60;27.40;;;;;;5027032;28;20499;-90
2023/03/19 10:22:58;;;;;;;12.82;6.65;;;22.70;27.60;;;;;;5042766;28;20368;-91
2023/03/19 10:25:27;;;;;;;10.77;6.43;;;22.60;27.80;;;;;;5035388;28;20025;-91
2023/03/19 10:27:59;;;;;;;13.32;7.63;;;22.80;27.50;;;;;;5038906;28;20022;-91
2023/03/19 10:30:26;;;;;;;9.32;7.65;;;21.30;28.00;;;;;;4995612;28;20023;-94
2023/03/19 10:33:25;;;;;;;11.38;7.97;;;19.00;29.20;;;;;;4964930;28;20034;-92
2023/03/19 10:36:31;;;;;;;11.15;8.13;;;16.80;30.90;;;;;;4996894;28;20043;-84
2023/03/19 10:38:58;;;;;;;18.93;9.00;;;;;;;;;;4949114;28;20035;-88
2023/03/19 10:41:57;;;;;;;10.80;8.25;;;12.80;35.00;;;;;;4995093;28;20261;-87
2023/03/19 10:44:34;;;;;;;9.27;8.27;;;10.60;36.60;;;;;;4979439;28;20031;-87
2023/03/19 10:47:11;;;;;;;13.15;7.93;;;10.30;39.60;;;;;;4978312;28;20034;-87
2023/03/19 10:49:37;;;;;;;8.55;7.28;;;9.40;41.40;;;;;;4976631;28;20034;-88
2023/03/19 10:52:04;;;;;;;12.93;8.55;;;8.80;42.10;;;;;;4975357;28;20038;-87
2023/03/19 10:54:30;;;;;;;10.88;7.15;;;8.40;43.40;;;;;;4975510;28;20548;-86
2023/03/19 10:56:58;;;;;;;13.35;8.05;;;8.10;44.20;;;;;;4977959;28;20042;-89
2023/03/19 10:59:32;;;;;;;11.05;7.72;;;7.90;45.00;;;;;;4978612;28;20449;-87
2023/03/19 11:02:02;;;;;;;16.45;8.55;;;7.70;45.30;;;;;;4993888;28;20046;-88
2023/03/19 11:04:28;;;;;;;13.98;7.88;;;7.50;46.10;;;;;;4975094;28;20435;-86
2023/03/19 11:07:01;;;;;;;8.10;6.72;;;7.40;46.60;;;;;;4977935;28;20043;-92
2023/03/19 11:09:42;;;;;;;16.52;8.90;;;7.30;47.00;;;;;;5017038;28;20045;-89
2023/03/19 11:12:32;;;;;;;11.20;7.57;;;7.00;48.10;;;;;;5021222;28;20026;-87
2023/03/19 11:15:02;;;;;;;11.23;7.63;;;6.90;48.70;;;;;;5034263;28;20103;-87
2023/03/19 11:17:28;;;;;;;11.18;7.05;;;;;;;;;;5016531;28;20041;-88
2023/03/19 11:19:56;;;;;;;16.40;8.32;;;6.50;49.60;;;;;;5017919;28;20056;-86
2023/03/19 11:22:26;;;;;;;14.70;7.97;;;6.30;50.30;;;;;;5014935;28;20483;-86
2023/03/19 11:25:02;;;;;;;12.43;8.18;;;6.30;50.70;;;;;;5018440;28;20056;-90
2023/03/19 11:27:32;;;;;;;12.70;7.82;;;6.30;50.90;;;;;;5019876;28;20033;-87
2023/03/19 11:29:59;;;;;;;16.50;9.68;;;6.30;51.20;;;;;;5033442;28;20418;-87
2023/03/19 11:32:46;;;;;;;18.00;8.98;;;6.40;51.30;;;;;;5024646;28;20084;-87
2023/03/19 11:35:20;;;;;;;11.25;6.75;;;6.40;51.60;;;;;;5018994;28;20076;-87
2023/03/19 11:38:12;;;;;;;11.38;7.63;;;6.30;52.30;;;;;;5019075;28;20038;-88
2023/03/19 11:40:48;;;;;;;11.60;6.63;;;6.10;52.20;;;;;;5001927;28;20030;-87
2023/03/19 11:43:39;;;;;;;12.02;5.15;;;6.00;53.00;;;;;;5035384;28;20045;-89
2023/03/19 11:46:35;;;;;;;10.15;5.80;;;6.00;52.90;;;;;;5009714;28;20094;-88
2023/03/19 11:49:27;;;;;;;12.05;6.13;;;5.90;53.60;;;;;;5038181;28;20033;-89
2023/03/19 11:52:01;;;;;;;13.23;6.00;;;5.80;53.50;;;;;;5000071;28;20045;-86
2023/03/19 11:54:36;;;;;;;11.77;5.53;;;5.90;53.50;;;;;;5035548;28;20025;-85
2023/03/19 11:57:15;;;;;;;9.98;5.82;;;5.80;53.70;;;;;;5035624;28;20089;-86
2023/03/19 12:00:00;;;;;;;9.48;5.57;;;5.70;53.90;;;;;;5035403;28;20101;-83
2023/03/19 12:02:32;;;;;;;10.45;6.63;;;5.50;54.80;;;;;;5031348;28;20108;-83
2023/03/19 12:05:19;;;;;;;9.85;6.40;;;5.40;55.00;;;;;;5031025;28;20104;-84
2023/03/19 12:08:14;;;;;;;17.90;7.68;;;5.40;55.20;;;;;;5028387;28;20414;-81
2023/03/19 12:11:05;;;;;;;10.43;6.90;;;5.50;55.10;;;;;;5014900;28;20112;-85
2023/03/19 12:13:50;;;;;;;6.75;5.40;;;5.60;55.10;;;;;;5021687;28;20026;-87
2023/03/19 12:16:29;;;;;;;8.65;6.70;;;5.50;54.90;;;;;;5034151;28;20030;-85
2023/03/19 12:18:55;;;;;;;10.43;5.95;;;5.60;55.30;;;;;;5031214;28;20026;-86
2023/03/19 12:21:33;;;;;;;12.82;6.97;;;5.60;55.50;;;;;;5022290;28;20541;-88
2023/03/19 12:24:30;;;;;;;11.07;6.68;;;5.60;55.50;;;;;;5016416;28;20160;-88
2023/03/19 12:27:05;;;;;;;10.63;6.90;;;5.70;55.30;;;;;;5025048;28;20492;-87
2023/03/19 12:29:54;;;;;;;9.15;5.93;;;5.70;55.40;;;;;;5019022;28;20060;-86
2023/03/19 12:32:49;;;;;;;9.27;6.15;;;6.00;55.50;;;;;;5035191;28;20021;-85
2023/03/19 12:35:19;;;;;;;14.25;6.97;;;6.50;54.80;;;;;;5010509;28;20030;-90
2023/03/19 12:38:11;;;;;;;10.68;6.63;;;6.70;54.90;;;;;;5038251;28;20026;-89
2023/03/19 12:40:40;;;;;;;9.15;6.05;;;6.80;54.40;;;;;;5018756;28;20136;-90
2023/03/19 12:43:29;;;;;;;11.80;6.57;;;6.70;54.00;;;;;;5020612;28;20454;-89
2023/03/19 12:46:19;;;;;;;9.55;5.70;;;6.60;54.30;;;;;;4992110;28;20117;-92
2023/03/19 12:48:56;;;;;;;11.73;6.80;;;6.10;54.60;;;;;;5004504;28;20096;-91
2023/03/19 12:51:33;;;;;;;12.00;7.30;;;5.90;55.60;;;;;;5026467;28;20030;-92
2023/03/19 12:54:22;;;;;;;18.20;9.00;;;5.80;55.60;;;;;;5004643;28;20093;-91
2023/03/19 12:57:07;;;;;;;11.45;6.90;;;5.70;55.90;;;;;;4943787;28;20119;-81
2023/03/19 12:59:51;;;;;;;13.32;7.78;;;5.60;56.30;;;;;;4955322;28;20035;-82
2023/03/19 13:02:26;;;;;;;13.07;7.35;;;5.50;56.70;;;;;;4954558;28;20051;-81
2023/03/19 13:04:59;;;;;;;12.20;6.97;;;5.50;56.80;;;;;;4956888;28;20055;-86
2023/03/19 13:07:36;;;;;;;8.43;6.35;;;5.50;56.90;;;;;;4971665;28;20027;-84